createdAt,value
2022-12-08T00:00:21.308Z,3.02
2022-12-08T00:01:22.282Z,2.99
2022-12-08T00:02:16.349Z,3.05
2022-12-08T00:03:10.558Z,3.06
2022-12-08T00:04:05.313Z,3.03
2022-12-08T00:05:06.684Z,3.03
2022-12-08T00:06:14.332Z,3.03
2022-12-08T00:07:13.348Z,3.03
2022-12-08T00:08:11.971Z,3.05
2022-12-08T00:09:12.312Z,3.07
2022-12-08T00:09:52.339Z,3.02
2022-12-08T00:10:49.458Z,3.13
2022-12-08T00:11:30.347Z,3.02
2022-12-08T00:12:23.316Z,3.04
2022-12-08T00:13:03.381Z,3.07
2022-12-08T00:13:44.345Z,3.13
2022-12-08T00:14:24.434Z,3.17
2022-12-08T00:15:05.549Z,3.14
2022-12-08T00:15:46.276Z,3.22
2022-12-08T00:16:20.414Z,3.19
2022-12-08T00:17:08.401Z,3.11
2022-12-08T00:17:42.399Z,3.16
2022-12-08T00:18:29.264Z,3.07
2022-12-08T00:19:03.364Z,3.10
2022-12-08T00:19:51.294Z,3.18
2022-12-08T00:20:25.409Z,3.16
2022-12-08T00:21:06.333Z,3.15
2022-12-08T00:21:46.361Z,3.15
2022-12-08T00:22:26.314Z,2.87
2022-12-08T00:23:06.370Z,3.08
2022-12-08T00:23:46.279Z,3.17
2022-12-08T00:24:27.330Z,3.20
2022-12-08T00:25:08.252Z,3.07
2022-12-08T00:25:48.338Z,3.19
2022-12-08T00:26:29.267Z,3.14
2022-12-08T00:27:09.323Z,3.12
2022-12-08T00:27:50.277Z,3.10
2022-12-08T00:28:30.357Z,3.16
2022-12-08T00:29:17.047Z,3.18
2022-12-08T00:29:57.309Z,3.27
2022-12-08T00:30:38.264Z,3.22
2022-12-08T00:31:19.518Z,3.28
2022-12-08T00:32:00.358Z,3.13
2022-12-08T00:32:54.289Z,3.17
2022-12-08T00:33:48.248Z,3.20
2022-12-08T00:34:42.304Z,3.09
2022-12-08T00:35:41.528Z,3.20
2022-12-08T00:36:37.296Z,3.04
2022-12-08T00:37:24.283Z,3.24
2022-12-08T00:38:00.945Z,3.09
2022-12-08T00:38:49.282Z,3.10
2022-12-08T00:39:24.432Z,3.11
2022-12-08T00:40:12.268Z,3.18
2022-12-08T00:40:53.628Z,3.18
2022-12-08T00:41:59.342Z,3.09
2022-12-08T00:42:40.354Z,3.21
2022-12-08T00:43:34.268Z,2.93
2022-12-08T00:44:31.245Z,3.07
2022-12-08T00:45:26.298Z,3.06
2022-12-08T00:46:20.326Z,3.03
2022-12-08T00:47:14.235Z,3.04
2022-12-08T00:48:01.299Z,3.11
2022-12-08T00:48:35.318Z,3.03
2022-12-08T00:49:23.220Z,3.07
2022-12-08T00:49:57.347Z,3.07
2022-12-08T00:50:45.235Z,3.04
2022-12-08T00:51:19.398Z,3.06
2022-12-08T00:52:07.243Z,3.00
2022-12-08T00:52:41.355Z,3.00
2022-12-08T00:53:22.334Z,3.00
2022-12-08T00:54:02.360Z,3.04
2022-12-08T00:54:42.247Z,3.04
2022-12-08T00:55:22.330Z,3.02
2022-12-08T00:56:02.216Z,3.13
2022-12-08T00:56:42.325Z,3.04
2022-12-08T00:57:23.218Z,2.98
2022-12-08T00:58:03.329Z,3.10
2022-12-08T00:58:43.372Z,3.01
2022-12-08T00:59:23.291Z,3.00
2022-12-08T01:00:04.470Z,2.96
2022-12-08T01:00:48.443Z,3.03
2022-12-08T01:01:29.237Z,2.97
2022-12-08T01:02:10.301Z,3.06
2022-12-08T01:02:50.286Z,3.07
2022-12-08T01:03:30.537Z,3.04
2022-12-08T01:04:22.275Z,3.03
2022-12-08T01:05:02.310Z,2.86
2022-12-08T01:05:42.259Z,3.07
2022-12-08T01:06:22.288Z,2.99
2022-12-08T01:07:03.322Z,2.95
2022-12-08T01:07:43.514Z,2.98
2022-12-08T01:08:23.288Z,3.00
2022-12-08T01:09:03.298Z,3.01
2022-12-08T01:09:43.207Z,3.02
2022-12-08T01:10:23.324Z,3.02
2022-12-08T01:11:04.258Z,3.17
2022-12-08T01:11:45.354Z,2.96
2022-12-08T01:12:26.214Z,3.07
2022-12-08T01:13:06.362Z,3.04
2022-12-08T01:13:47.251Z,3.06
2022-12-08T01:14:27.384Z,2.98
2022-12-08T01:15:07.214Z,3.03
2022-12-08T01:15:47.289Z,2.99
2022-12-08T01:16:31.250Z,3.07
2022-12-08T01:17:11.358Z,3.06
2022-12-08T01:17:51.220Z,2.99
2022-12-08T01:18:31.323Z,2.99
2022-12-08T01:19:11.258Z,3.03
2022-12-08T01:19:51.255Z,3.07
2022-12-08T01:20:31.240Z,3.05
2022-12-08T01:21:14.441Z,3.12
2022-12-08T01:21:55.225Z,3.12
2022-12-08T01:22:36.044Z,3.12
2022-12-08T01:23:16.213Z,3.13
2022-12-08T01:23:58.028Z,3.17
2022-12-08T01:24:39.208Z,3.14
2022-12-08T01:25:19.436Z,3.18
2022-12-08T01:26:00.243Z,3.22
2022-12-08T01:26:40.315Z,3.11
2022-12-08T01:27:23.187Z,3.23
2022-12-08T01:28:03.295Z,3.24
2022-12-08T01:28:43.175Z,3.20
2022-12-08T01:29:23.261Z,3.32
2022-12-08T01:30:03.519Z,3.30
2022-12-08T01:30:47.354Z,3.09
2022-12-08T01:31:29.274Z,3.20
2022-12-08T01:32:09.440Z,3.21
2022-12-08T01:32:50.221Z,3.25
2022-12-08T01:33:31.372Z,3.23
2022-12-08T01:34:12.187Z,3.27
2022-12-08T01:34:53.389Z,3.18
2022-12-08T01:35:34.221Z,3.25
2022-12-08T01:36:16.250Z,3.27
2022-12-08T01:36:56.232Z,3.23
2022-12-08T01:37:36.236Z,3.25
2022-12-08T01:38:17.211Z,3.21
2022-12-08T01:38:58.295Z,3.24
2022-12-08T01:39:39.206Z,3.13
2022-12-08T01:40:19.308Z,3.18
2022-12-08T01:40:59.255Z,3.21
2022-12-08T01:41:43.585Z,3.17
2022-12-08T01:42:30.184Z,3.08
2022-12-08T01:43:10.307Z,3.23
2022-12-08T01:44:15.191Z,3.13
2022-12-08T01:45:08.282Z,3.10
2022-12-08T01:45:48.254Z,3.13
2022-12-08T01:46:29.402Z,3.06
2022-12-08T01:47:09.199Z,3.09
2022-12-08T01:47:52.278Z,3.10
2022-12-08T01:48:33.261Z,2.94
2022-12-08T01:49:38.260Z,2.88
2022-12-08T01:50:15.258Z,2.95
2022-12-08T01:51:03.204Z,3.06
2022-12-08T01:51:42.283Z,3.06
2022-12-08T01:52:36.175Z,2.96
2022-12-08T01:53:35.335Z,3.06
2022-12-08T01:54:29.200Z,2.98
2022-12-08T01:55:49.193Z,2.96
2022-12-08T01:57:14.164Z,3.11
2022-12-08T01:58:14.190Z,2.98
2022-12-08T01:58:57.207Z,2.96
2022-12-08T01:59:41.436Z,3.10
2022-12-08T02:00:25.177Z,3.06
2022-12-08T02:01:05.342Z,3.05
2022-12-08T02:01:46.279Z,3.02
2022-12-08T02:02:27.310Z,3.04
2022-12-08T02:03:11.183Z,3.07
2022-12-08T02:04:06.226Z,2.96
2022-12-08T02:05:00.191Z,3.14
2022-12-08T02:05:55.228Z,3.08
2022-12-08T02:06:54.205Z,3.12
2022-12-08T02:07:49.305Z,3.10
2022-12-08T02:08:45.200Z,3.06
2022-12-08T02:09:27.193Z,3.06
2022-12-08T02:10:07.359Z,2.96
2022-12-08T02:10:50.154Z,2.98
2022-12-08T02:11:30.239Z,3.00
2022-12-08T02:12:11.166Z,3.03
2022-12-08T02:12:51.315Z,3.06
2022-12-08T02:13:31.177Z,3.01
2022-12-08T02:14:14.216Z,3.01
2022-12-08T02:14:54.196Z,2.98
2022-12-08T02:15:56.387Z,3.01
2022-12-08T02:16:58.189Z,3.03
2022-12-08T02:18:12.199Z,2.88
2022-12-08T02:19:38.182Z,3.08
2022-12-08T02:20:29.163Z,2.92
2022-12-08T02:21:16.238Z,2.98
2022-12-08T02:22:39.167Z,2.67
2022-12-08T02:23:33.268Z,2.89
2022-12-08T02:24:41.163Z,2.88
2022-12-08T02:25:28.278Z,2.78
2022-12-08T02:27:09.169Z,2.88
2022-12-08T02:28:17.208Z,2.84
2022-12-08T02:29:46.257Z,2.80
2022-12-08T02:31:01.240Z,2.86
2022-12-08T02:32:37.148Z,2.90
2022-12-08T02:34:12.200Z,2.97
2022-12-08T02:35:14.164Z,2.98
2022-12-08T02:36:28.150Z,2.90
2022-12-08T02:37:35.141Z,2.96
2022-12-08T02:38:30.208Z,2.93
2022-12-08T02:39:34.256Z,3.05
2022-12-08T02:40:43.170Z,3.06
2022-12-08T02:41:38.374Z,2.99
2022-12-08T02:42:48.180Z,2.90
2022-12-08T02:43:34.180Z,3.02
2022-12-08T02:44:42.091Z,2.98
2022-12-08T02:45:52.245Z,2.95
2022-12-08T02:46:39.115Z,3.13
2022-12-08T02:47:23.180Z,3.15
2022-12-08T02:48:05.115Z,3.09
2022-12-08T02:48:45.258Z,3.02
2022-12-08T02:49:26.134Z,3.07
2022-12-08T02:50:08.335Z,3.05
2022-12-08T02:50:49.114Z,3.02
2022-12-08T02:51:29.155Z,2.96
2022-12-08T02:52:38.150Z,2.91
2022-12-08T02:53:25.115Z,2.92
2022-12-08T02:54:19.108Z,2.97
2022-12-08T02:55:20.161Z,3.01
2022-12-08T02:56:45.166Z,3.01
2022-12-08T02:57:54.304Z,3.05
2022-12-08T02:59:18.209Z,2.98
2022-12-08T03:00:12.178Z,2.93
2022-12-08T03:01:21.228Z,3.04
2022-12-08T03:02:33.236Z,3.13
2022-12-08T03:03:42.121Z,3.01
2022-12-08T03:04:57.162Z,3.16
2022-12-08T03:06:07.123Z,3.10
2022-12-08T03:07:19.141Z,3.12
2022-12-08T03:08:22.190Z,3.15
2022-12-08T03:09:47.122Z,3.08
2022-12-08T03:10:39.123Z,3.12
2022-12-08T03:11:31.135Z,3.20
2022-12-08T03:12:42.139Z,3.22
2022-12-08T03:13:32.163Z,3.24
2022-12-08T03:14:14.071Z,3.17
2022-12-08T03:14:59.196Z,3.28
2022-12-08T03:15:41.144Z,3.28
2022-12-08T03:16:27.207Z,3.30
2022-12-08T03:17:08.103Z,3.31
2022-12-08T03:17:54.324Z,3.27
2022-12-08T03:18:37.088Z,3.34
2022-12-08T03:19:26.201Z,3.28
2022-12-08T03:20:11.074Z,3.23
2022-12-08T03:21:00.127Z,3.20
2022-12-08T03:21:55.104Z,3.30
2022-12-08T03:22:49.125Z,3.31
2022-12-08T03:23:44.095Z,3.33
2022-12-08T03:24:38.175Z,3.35
2022-12-08T03:25:37.057Z,3.38
2022-12-08T03:26:43.099Z,3.38
2022-12-08T03:27:23.112Z,3.44
2022-12-08T03:28:11.099Z,3.49
2022-12-08T03:28:45.092Z,3.41
2022-12-08T03:29:32.312Z,3.44
2022-12-08T03:30:07.450Z,3.43
2022-12-08T03:30:56.227Z,3.52
2022-12-08T03:31:34.319Z,3.58
2022-12-08T03:32:46.084Z,3.47
2022-12-08T03:33:32.142Z,3.45
2022-12-08T03:34:13.104Z,3.47
2022-12-08T03:34:55.145Z,3.37
2022-12-08T03:35:39.071Z,3.40
2022-12-08T03:36:20.150Z,3.33
2022-12-08T03:37:01.049Z,3.40
2022-12-08T03:37:53.103Z,3.47
2022-12-08T03:38:56.046Z,3.45
2022-12-08T03:39:50.068Z,3.46
2022-12-08T03:40:44.055Z,3.36
2022-12-08T03:41:38.080Z,3.45
2022-12-08T03:42:32.050Z,3.26
2022-12-08T03:43:13.057Z,3.39
2022-12-08T03:44:00.133Z,3.42
2022-12-08T03:44:41.071Z,3.39
2022-12-08T03:45:21.556Z,3.39
2022-12-08T03:46:01.124Z,3.34
2022-12-08T03:46:41.275Z,3.40
2022-12-08T03:47:21.065Z,3.37
2022-12-08T03:48:01.120Z,3.40
2022-12-08T03:48:41.105Z,3.43
2022-12-08T03:49:21.078Z,3.37
2022-12-08T03:50:01.147Z,3.43
2022-12-08T03:50:41.071Z,3.42
2022-12-08T03:51:22.167Z,3.50
2022-12-08T03:52:02.192Z,3.35
2022-12-08T03:52:42.034Z,3.37
2022-12-08T03:53:22.275Z,3.41
2022-12-08T03:54:03.158Z,3.38
2022-12-08T03:54:43.179Z,3.36
2022-12-08T03:55:24.092Z,3.37
2022-12-08T03:56:04.322Z,3.39
2022-12-08T03:56:46.050Z,3.45
2022-12-08T03:57:26.111Z,3.37
2022-12-08T03:58:06.055Z,3.41
2022-12-08T03:58:47.059Z,3.31
2022-12-08T03:59:27.113Z,3.35
2022-12-08T04:00:07.363Z,3.39
2022-12-08T04:00:48.064Z,3.41
2022-12-08T04:01:29.243Z,3.35
2022-12-08T04:02:09.118Z,3.36
2022-12-08T04:02:49.141Z,3.40
2022-12-08T04:03:30.094Z,3.32
2022-12-08T04:04:11.494Z,3.34
2022-12-08T04:04:51.068Z,3.30
2022-12-08T04:05:31.192Z,3.34
2022-12-08T04:06:12.002Z,3.39
2022-12-08T04:06:52.199Z,3.39
2022-12-08T04:07:32.045Z,3.51
2022-12-08T04:08:12.116Z,3.44
2022-12-08T04:08:52.032Z,3.45
2022-12-08T04:09:32.090Z,3.53
2022-12-08T04:10:13.074Z,3.52
2022-12-08T04:10:53.072Z,3.47
2022-12-08T04:11:33.090Z,3.52
2022-12-08T04:12:14.096Z,3.56
2022-12-08T04:12:55.037Z,3.58
2022-12-08T04:13:36.104Z,3.47
2022-12-08T04:14:17.037Z,3.57
2022-12-08T04:14:57.140Z,3.68
2022-12-08T04:15:37.105Z,3.71
2022-12-08T04:16:27.959Z,3.73
2022-12-08T04:17:09.042Z,3.73
2022-12-08T04:17:50.082Z,3.74
2022-12-08T04:18:30.011Z,3.66
2022-12-08T04:19:10.061Z,3.71
2022-12-08T04:19:50.043Z,3.72
2022-12-08T04:20:30.191Z,3.65
2022-12-08T04:21:10.052Z,3.62
2022-12-08T04:21:50.118Z,3.62
2022-12-08T04:22:31.032Z,3.67
2022-12-08T04:23:12.290Z,3.71
2022-12-08T04:24:00.627Z,3.68
2022-12-08T04:24:41.123Z,3.76
2022-12-08T04:25:21.973Z,3.75
2022-12-08T04:26:02.091Z,3.70
2022-12-08T04:26:42.091Z,3.79
2022-12-08T04:27:22.150Z,3.68
2022-12-08T04:28:03.048Z,3.66
2022-12-08T04:28:43.065Z,3.64
2022-12-08T04:29:23.037Z,3.66
2022-12-08T04:30:03.632Z,3.67
2022-12-08T04:30:43.996Z,3.53
2022-12-08T04:31:24.111Z,3.55
2022-12-08T04:32:05.067Z,3.56
2022-12-08T04:32:47.483Z,3.62
2022-12-08T04:33:28.032Z,3.59
2022-12-08T04:34:08.291Z,3.55
2022-12-08T04:34:48.049Z,3.49
2022-12-08T04:35:28.158Z,3.64
2022-12-08T04:36:10.973Z,3.66
2022-12-08T04:36:51.107Z,3.65
2022-12-08T04:37:32.034Z,3.60
2022-12-08T04:38:12.041Z,3.58
2022-12-08T04:38:51.996Z,3.59
2022-12-08T04:39:32.059Z,3.52
2022-12-08T04:40:12.995Z,3.57
2022-12-08T04:40:53.102Z,3.55
2022-12-08T04:41:34.008Z,3.62
2022-12-08T04:42:14.075Z,3.51
2022-12-08T04:42:54.007Z,3.58
2022-12-08T04:43:34.121Z,3.51
2022-12-08T04:44:14.050Z,3.59
2022-12-08T04:44:54.136Z,3.46
2022-12-08T04:45:34.022Z,3.50
2022-12-08T04:46:15.141Z,3.50
2022-12-08T04:46:55.018Z,3.55
2022-12-08T04:47:35.106Z,3.66
2022-12-08T04:48:19.008Z,3.72
2022-12-08T04:48:59.054Z,3.61
2022-12-08T04:49:39.007Z,3.59
2022-12-08T04:50:19.049Z,3.57
2022-12-08T04:51:00.019Z,3.54
2022-12-08T04:51:40.063Z,3.62
2022-12-08T04:52:20.003Z,3.59
2022-12-08T04:53:00.097Z,3.53
2022-12-08T04:53:46.312Z,3.57
2022-12-08T04:54:27.064Z,3.50
2022-12-08T04:55:07.992Z,3.53
2022-12-08T04:55:51.308Z,3.54
2022-12-08T04:56:31.975Z,3.54
2022-12-08T04:57:12.027Z,3.57
2022-12-08T04:57:52.962Z,3.63
2022-12-08T04:58:33.139Z,3.43
2022-12-08T04:59:13.032Z,3.40
2022-12-08T04:59:53.096Z,3.37
2022-12-08T05:00:33.990Z,3.40
2022-12-08T05:01:14.102Z,3.40
2022-12-08T05:01:54.125Z,3.26
2022-12-08T05:02:34.124Z,3.36
2022-12-08T05:03:15.020Z,3.36
2022-12-08T05:03:55.009Z,3.38
2022-12-08T05:04:35.059Z,3.42
2022-12-08T05:05:16.088Z,3.42
2022-12-08T05:05:57.008Z,3.46
2022-12-08T05:06:37.210Z,3.50
2022-12-08T05:07:18.065Z,3.44
2022-12-08T05:07:58.164Z,3.34
2022-12-08T05:08:40.012Z,3.32
2022-12-08T05:09:20.341Z,3.29
2022-12-08T05:10:01.254Z,3.38
2022-12-08T05:10:43.019Z,3.44
2022-12-08T05:11:22.959Z,3.47
2022-12-08T05:12:03.019Z,3.39
2022-12-08T05:12:42.973Z,3.49
2022-12-08T05:13:23.086Z,3.41
2022-12-08T05:14:02.963Z,3.35
2022-12-08T05:14:43.983Z,3.34
2022-12-08T05:15:25.092Z,3.36
2022-12-08T05:16:13.242Z,3.26
2022-12-08T05:16:54.017Z,3.21
2022-12-08T05:17:34.049Z,3.27
2022-12-08T05:18:14.961Z,3.30
2022-12-08T05:18:55.148Z,3.28
2022-12-08T05:19:36.043Z,3.33
2022-12-08T05:20:17.119Z,3.35
2022-12-08T05:20:57.002Z,3.41
2022-12-08T05:21:37.024Z,3.31
2022-12-08T05:22:16.940Z,3.36
2022-12-08T05:22:57.000Z,3.41
2022-12-08T05:23:36.976Z,3.36
2022-12-08T05:24:18.060Z,3.37
2022-12-08T05:24:57.989Z,3.36
2022-12-08T05:25:38.093Z,3.30
2022-12-08T05:26:17.984Z,3.25
2022-12-08T05:26:57.968Z,3.25
2022-12-08T05:27:37.960Z,3.27
2022-12-08T05:28:40.715Z,3.38
2022-12-08T05:29:18.936Z,3.36
2022-12-08T05:29:59.021Z,3.29
2022-12-08T05:30:38.950Z,3.31
2022-12-08T05:31:28.118Z,3.30
2022-12-08T05:32:21.948Z,3.37
2022-12-08T05:33:16.119Z,3.40
2022-12-08T05:34:09.986Z,3.35
2022-12-08T05:35:03.928Z,3.27
2022-12-08T05:35:58.921Z,3.35
2022-12-08T05:36:46.935Z,3.28
2022-12-08T05:37:21.328Z,3.38
2022-12-08T05:38:07.950Z,3.37
2022-12-08T05:38:42.005Z,3.40
2022-12-08T05:39:28.956Z,3.40
2022-12-08T05:40:03.388Z,3.44
2022-12-08T05:40:50.916Z,3.45
2022-12-08T05:41:26.992Z,3.48
2022-12-08T05:42:06.954Z,3.51
2022-12-08T05:42:47.002Z,3.45
2022-12-08T05:43:27.913Z,3.43
2022-12-08T05:44:08.048Z,3.39
2022-12-08T05:44:47.941Z,3.39
2022-12-08T05:45:28.127Z,3.37
2022-12-08T05:46:09.024Z,3.40
2022-12-08T05:46:49.100Z,3.35
2022-12-08T05:47:35.738Z,3.37
2022-12-08T05:48:16.986Z,3.35
2022-12-08T05:48:57.943Z,3.49
2022-12-08T05:49:39.077Z,3.51
2022-12-08T05:50:18.923Z,3.49
2022-12-08T05:50:59.988Z,3.44
2022-12-08T05:51:39.956Z,3.40
2022-12-08T05:52:20.053Z,3.52
2022-12-08T05:53:00.969Z,3.38
2022-12-08T05:53:40.973Z,3.44
2022-12-08T05:54:20.921Z,3.49
2022-12-08T05:55:01.112Z,3.57
2022-12-08T05:55:40.906Z,3.60
2022-12-08T05:56:21.006Z,3.60
2022-12-08T05:57:00.903Z,3.63
2022-12-08T05:57:41.008Z,3.55
2022-12-08T05:58:27.975Z,3.48
2022-12-08T05:59:07.968Z,3.42
2022-12-08T05:59:47.939Z,3.47
2022-12-08T06:00:27.928Z,3.45
2022-12-08T06:01:07.887Z,3.46
2022-12-08T06:01:48.090Z,3.52
2022-12-08T06:02:28.987Z,3.52
2022-12-08T06:03:09.659Z,3.53
2022-12-08T06:03:49.978Z,3.55
2022-12-08T06:04:29.973Z,3.58
2022-12-08T06:05:10.948Z,3.64
2022-12-08T06:05:53.011Z,3.58
2022-12-08T06:06:34.907Z,3.42
2022-12-08T06:07:16.360Z,3.41
2022-12-08T06:07:56.909Z,3.51
2022-12-08T06:08:36.969Z,3.40
2022-12-08T06:09:19.001Z,3.41
2022-12-08T06:09:59.085Z,3.49
2022-12-08T06:10:38.884Z,3.50
2022-12-08T06:11:27.933Z,3.49
2022-12-08T06:12:08.938Z,3.41
2022-12-08T06:12:48.980Z,3.39
2022-12-08T06:13:28.928Z,3.41
2022-12-08T06:14:08.946Z,3.37
2022-12-08T06:14:48.956Z,3.39
2022-12-08T06:15:28.959Z,3.49
2022-12-08T06:16:12.935Z,3.45
2022-12-08T06:16:54.052Z,3.52
2022-12-08T06:17:34.932Z,3.53
2022-12-08T06:18:16.033Z,3.38
2022-12-08T06:18:56.954Z,3.52
2022-12-08T06:19:36.943Z,3.55
2022-12-08T06:20:16.948Z,3.57
2022-12-08T06:20:56.941Z,3.56
2022-12-08T06:21:37.905Z,3.56
2022-12-08T06:22:17.937Z,3.66
2022-12-08T06:22:57.919Z,3.64
2022-12-08T06:23:37.972Z,3.70
2022-12-08T06:24:17.895Z,3.70
2022-12-08T06:24:57.975Z,3.78
2022-12-08T06:25:37.917Z,3.79
2022-12-08T06:26:20.913Z,3.72
2022-12-08T06:27:00.863Z,3.80
2022-12-08T06:27:40.959Z,3.87
2022-12-08T06:28:20.878Z,3.85
2022-12-08T06:29:00.991Z,3.75
2022-12-08T06:29:40.895Z,3.73
2022-12-08T06:30:23.131Z,3.79
2022-12-08T06:31:03.956Z,3.82
2022-12-08T06:31:45.095Z,3.82
2022-12-08T06:32:27.583Z,3.80
2022-12-08T06:33:07.979Z,3.86
2022-12-08T06:33:48.876Z,3.81
2022-12-08T06:34:28.956Z,3.82
2022-12-08T06:35:09.915Z,3.86
2022-12-08T06:35:50.031Z,3.97
2022-12-08T06:36:33.968Z,3.89
2022-12-08T06:37:27.903Z,3.96
2022-12-08T06:38:21.904Z,3.94
2022-12-08T06:39:15.855Z,3.96
2022-12-08T06:40:09.877Z,3.98
2022-12-08T06:41:11.908Z,4.07
2022-12-08T06:42:17.996Z,4.14
2022-12-08T06:42:51.941Z,4.01
2022-12-08T06:43:39.892Z,4.17
2022-12-08T06:44:14.010Z,4.16
2022-12-08T06:45:01.905Z,4.23
2022-12-08T06:45:36.029Z,4.17
2022-12-08T06:46:25.956Z,4.16
2022-12-08T06:47:00.008Z,4.24
2022-12-08T06:47:39.921Z,4.23
2022-12-08T06:48:20.920Z,4.27
2022-12-08T06:49:00.872Z,4.25
2022-12-08T06:49:44.137Z,4.34
2022-12-08T06:50:24.886Z,4.32
2022-12-08T06:51:13.109Z,4.33
2022-12-08T06:51:53.880Z,4.32
2022-12-08T06:52:39.089Z,4.26
2022-12-08T06:53:25.883Z,4.24
2022-12-08T06:54:06.095Z,4.30
2022-12-08T06:54:45.825Z,4.35
2022-12-08T06:55:51.256Z,4.22
2022-12-08T06:56:26.871Z,4.27
2022-12-08T06:57:07.976Z,4.28
2022-12-08T06:57:47.890Z,4.34
2022-12-08T06:58:35.869Z,4.32
2022-12-08T06:59:29.876Z,4.35
2022-12-08T07:00:24.874Z,4.25
2022-12-08T07:01:24.914Z,4.30
2022-12-08T07:02:19.897Z,4.28
2022-12-08T07:03:13.846Z,4.25
2022-12-08T07:04:00.919Z,4.33
2022-12-08T07:04:35.100Z,4.27
2022-12-08T07:05:21.849Z,4.31
2022-12-08T07:06:05.001Z,4.35
2022-12-08T07:06:45.851Z,4.31
2022-12-08T07:07:25.917Z,4.32
2022-12-08T07:08:05.857Z,4.32
2022-12-08T07:08:45.863Z,4.32
2022-12-08T07:09:25.921Z,4.38
2022-12-08T07:10:10.096Z,4.32
2022-12-08T07:10:49.841Z,4.25
2022-12-08T07:11:30.884Z,4.29
2022-12-08T07:12:11.857Z,4.34
2022-12-08T07:12:52.940Z,4.33
2022-12-08T07:13:33.863Z,4.44
2022-12-08T07:14:15.130Z,4.43
2022-12-08T07:14:54.860Z,4.44
2022-12-08T07:15:36.019Z,4.47
2022-12-08T07:16:18.918Z,4.42
2022-12-08T07:16:59.023Z,4.44
2022-12-08T07:17:38.868Z,4.44
2022-12-08T07:18:18.945Z,4.53
2022-12-08T07:18:58.866Z,4.59
2022-12-08T07:19:39.890Z,4.36
2022-12-08T07:20:19.807Z,4.38
2022-12-08T07:20:59.869Z,4.44
2022-12-08T07:21:39.816Z,4.51
2022-12-08T07:22:19.980Z,4.50
2022-12-08T07:23:00.875Z,4.50
2022-12-08T07:23:42.928Z,4.48
2022-12-08T07:24:23.841Z,4.51
2022-12-08T07:25:04.856Z,4.57
2022-12-08T07:25:44.839Z,4.56
2022-12-08T07:26:26.899Z,4.60
2022-12-08T07:27:07.805Z,4.62
2022-12-08T07:27:48.079Z,4.55
2022-12-08T07:28:28.819Z,4.55
2022-12-08T07:29:10.214Z,4.51
2022-12-08T07:29:50.831Z,4.53
2022-12-08T07:30:30.891Z,4.52
2022-12-08T07:31:11.971Z,4.55
2022-12-08T07:31:52.097Z,4.64
2022-12-08T07:32:32.870Z,4.64
2022-12-08T07:33:12.853Z,4.63
2022-12-08T07:33:53.818Z,4.63
2022-12-08T07:34:34.847Z,4.48
2022-12-08T07:35:15.834Z,4.55
2022-12-08T07:36:07.931Z,4.57
2022-12-08T07:36:47.843Z,4.53
2022-12-08T07:37:29.019Z,4.63
2022-12-08T07:38:09.828Z,4.63
2022-12-08T07:38:50.867Z,4.52
2022-12-08T07:39:30.804Z,4.53
2022-12-08T07:40:14.132Z,4.56
2022-12-08T07:40:54.843Z,4.60
2022-12-08T07:41:34.975Z,4.62
2022-12-08T07:42:14.933Z,4.65
2022-12-08T07:42:54.933Z,4.62
2022-12-08T07:43:34.803Z,4.58
2022-12-08T07:44:17.248Z,4.68
2022-12-08T07:44:57.809Z,4.57
2022-12-08T07:45:37.863Z,4.70
2022-12-08T07:46:27.961Z,4.71
2022-12-08T07:47:07.906Z,4.65
2022-12-08T07:47:54.861Z,4.70
2022-12-08T07:48:28.913Z,4.67
2022-12-08T07:49:15.827Z,4.73
2022-12-08T07:49:49.874Z,4.82
2022-12-08T07:50:36.791Z,4.78
2022-12-08T07:51:13.037Z,4.75
2022-12-08T07:52:01.788Z,4.74
2022-12-08T07:52:35.953Z,4.69
2022-12-08T07:53:15.826Z,4.79
2022-12-08T07:53:58.853Z,4.83
2022-12-08T07:54:38.828Z,4.84
2022-12-08T07:55:18.857Z,4.89
2022-12-08T07:55:59.805Z,4.91
2022-12-08T07:56:42.164Z,4.80
2022-12-08T07:57:22.810Z,4.87
2022-12-08T07:58:02.944Z,4.80
2022-12-08T07:58:43.833Z,4.95
2022-12-08T07:59:23.916Z,4.94
2022-12-08T08:00:04.088Z,4.93
2022-12-08T08:00:44.872Z,4.96
2022-12-08T08:01:36.009Z,5.02
2022-12-08T08:02:26.523Z,4.86
2022-12-08T08:03:07.850Z,4.96
2022-12-08T08:03:54.807Z,4.97
2022-12-08T08:04:48.923Z,4.90
2022-12-08T08:05:43.792Z,5.04
2022-12-08T08:06:38.803Z,5.05
2022-12-08T08:07:34.934Z,5.06
2022-12-08T08:08:29.910Z,5.02
2022-12-08T08:09:16.797Z,4.98
2022-12-08T08:09:50.841Z,5.04
2022-12-08T08:10:38.834Z,4.98
2022-12-08T08:11:20.985Z,4.96
2022-12-08T08:12:30.131Z,5.05
2022-12-08T08:13:05.897Z,5.11
2022-12-08T08:13:56.836Z,5.04
2022-12-08T08:14:37.884Z,5.02
2022-12-08T08:15:31.996Z,5.06
2022-12-08T08:16:25.938Z,5.00
2022-12-08T08:17:19.864Z,5.09
2022-12-08T08:18:16.770Z,5.06
2022-12-08T08:19:10.830Z,5.12
2022-12-08T08:19:58.785Z,5.08
2022-12-08T08:20:32.851Z,5.15
2022-12-08T08:22:15.929Z,5.20
2022-12-08T08:23:02.808Z,5.23
2022-12-08T08:23:36.904Z,5.23
2022-12-08T08:24:27.767Z,5.10
2022-12-08T08:25:08.787Z,5.16
2022-12-08T08:26:03.770Z,5.23
2022-12-08T08:26:59.795Z,5.26
2022-12-08T08:27:54.825Z,5.27
2022-12-08T08:28:52.793Z,5.33
2022-12-08T08:29:46.827Z,5.34
2022-12-08T08:30:33.805Z,5.38
2022-12-08T08:31:08.907Z,5.44
2022-12-08T08:31:56.755Z,5.42
2022-12-08T08:32:30.827Z,5.33
2022-12-08T08:33:17.818Z,5.31
2022-12-08T08:33:52.106Z,5.30
2022-12-08T08:34:38.792Z,5.34
2022-12-08T08:35:15.362Z,5.24
2022-12-08T08:35:58.061Z,5.21
2022-12-08T08:36:39.821Z,5.16
2022-12-08T08:37:20.833Z,5.07
2022-12-08T08:38:00.829Z,5.15
2022-12-08T08:38:42.838Z,5.16
2022-12-08T08:39:22.821Z,5.11
2022-12-08T08:40:03.209Z,5.13
2022-12-08T08:40:43.916Z,5.07
2022-12-08T08:41:24.815Z,5.12
2022-12-08T08:42:18.797Z,5.09
2022-12-08T08:43:16.003Z,5.18
2022-12-08T08:44:09.819Z,5.28
2022-12-08T08:45:03.752Z,5.16
2022-12-08T08:45:57.793Z,5.20
2022-12-08T08:46:44.942Z,5.21
2022-12-08T08:47:18.901Z,5.09
2022-12-08T08:48:06.726Z,5.17
2022-12-08T08:48:40.926Z,5.10
2022-12-08T08:49:27.859Z,5.11
2022-12-08T08:50:02.135Z,4.98
2022-12-08T08:50:49.737Z,5.00
2022-12-08T08:51:26.202Z,5.12
2022-12-08T08:52:06.765Z,5.23
2022-12-08T08:52:47.791Z,5.20
2022-12-08T08:53:28.750Z,5.12
2022-12-08T08:54:08.827Z,5.05
2022-12-08T08:54:48.765Z,5.16
2022-12-08T08:55:29.918Z,5.14
2022-12-08T08:56:11.729Z,5.21
2022-12-08T08:56:52.844Z,5.27
2022-12-08T08:57:33.776Z,5.20
2022-12-08T08:58:14.851Z,5.17
2022-12-08T08:58:56.736Z,5.16
2022-12-08T08:59:36.783Z,5.10
2022-12-08T09:00:18.824Z,5.23
2022-12-08T09:00:58.840Z,5.21
2022-12-08T09:01:38.847Z,5.22
2022-12-08T09:02:25.883Z,5.12
2022-12-08T09:03:06.747Z,5.21
2022-12-08T09:03:46.858Z,5.19
2022-12-08T09:04:28.748Z,5.24
2022-12-08T09:05:08.903Z,5.32
2022-12-08T09:05:48.757Z,5.35
2022-12-08T09:06:29.799Z,5.32
2022-12-08T09:07:09.747Z,5.35
2022-12-08T09:07:49.803Z,5.34
2022-12-08T09:08:30.990Z,5.31
2022-12-08T09:09:11.870Z,5.33
2022-12-08T09:09:53.188Z,5.32
2022-12-08T09:10:37.511Z,5.39
2022-12-08T09:11:19.713Z,5.31
2022-12-08T09:12:00.778Z,5.39
2022-12-08T09:12:41.706Z,5.34
2022-12-08T09:13:22.452Z,5.36
2022-12-08T09:14:02.745Z,5.42
2022-12-08T09:14:42.794Z,5.41
2022-12-08T09:15:23.746Z,5.44
2022-12-08T09:16:03.843Z,5.44
2022-12-08T09:16:44.786Z,5.51
2022-12-08T09:17:24.812Z,5.50
2022-12-08T09:18:07.692Z,5.27
2022-12-08T09:18:49.415Z,5.36
2022-12-08T09:19:30.750Z,5.35
2022-12-08T09:20:14.909Z,5.42
2022-12-08T09:20:55.736Z,5.31
2022-12-08T09:21:38.121Z,5.33
2022-12-08T09:22:17.700Z,5.31
2022-12-08T09:22:57.751Z,5.32
2022-12-08T09:23:37.758Z,5.38
2022-12-08T09:24:17.757Z,5.36
2022-12-08T09:24:57.723Z,5.38
2022-12-08T09:25:37.807Z,5.45
2022-12-08T09:26:18.708Z,5.46
2022-12-08T09:26:58.772Z,5.37
2022-12-08T09:27:38.704Z,5.43
2022-12-08T09:28:19.763Z,5.31
2022-12-08T09:29:01.664Z,5.37
2022-12-08T09:29:41.753Z,5.42
2022-12-08T09:30:22.822Z,5.39
2022-12-08T09:31:03.761Z,5.32
2022-12-08T09:31:44.729Z,5.25
2022-12-08T09:32:26.775Z,5.39
2022-12-08T09:33:06.727Z,5.37
2022-12-08T09:33:47.524Z,5.38
2022-12-08T09:34:27.746Z,5.46
2022-12-08T09:35:08.739Z,5.40
2022-12-08T09:35:48.729Z,5.48
2022-12-08T09:36:29.044Z,5.43
2022-12-08T09:37:09.744Z,5.41
2022-12-08T09:37:49.754Z,5.38
2022-12-08T09:38:29.640Z,5.42
2022-12-08T09:39:09.776Z,5.29
2022-12-08T09:39:50.684Z,5.43
2022-12-08T09:40:31.708Z,5.47
2022-12-08T09:41:30.815Z,5.40
2022-12-08T09:42:13.779Z,5.44
2022-12-08T09:43:15.661Z,5.54
2022-12-08T09:44:22.848Z,5.40
2022-12-08T09:45:17.743Z,5.35
2022-12-08T09:45:58.746Z,5.39
2022-12-08T09:46:40.753Z,5.28
2022-12-08T09:47:36.186Z,5.44
2022-12-08T09:48:32.705Z,5.38
2022-12-08T09:49:21.710Z,5.42
2022-12-08T09:50:24.676Z,5.42
2022-12-08T09:51:05.858Z,5.51
2022-12-08T09:51:47.732Z,5.40
2022-12-08T09:52:43.794Z,5.50
2022-12-08T09:53:35.925Z,5.50
2022-12-08T09:54:40.732Z,5.44
2022-12-08T09:55:31.655Z,5.53
2022-12-08T09:56:35.739Z,5.51